sensor_id;sensor_type;location;lat;lon;timestamp;temperature;humidity
10722;DHT22;5412;59.450;18.124;2023-03-01T00:01:59;4.30;99.90
10722;DHT22;5412;59.450;18.124;2023-03-01T00:04:25;4.40;99.90
10722;DHT22;5412;59.450;18.124;2023-03-01T00:06:50;4.30;99.90
10722;DHT22;5412;59.450;18.124;2023-03-01T00:09:17;4.30;99.90
10722;DHT22;5412;59.450;18.124;2023-03-01T00:11:43;4.30;99.90
10722;DHT22;5412;59.450;18.124;2023-03-01T00:14:09;4.30;99.90
10722;DHT22;5412;59.450;18.124;2023-03-01T00:16:40;4.30;99.90
10722;DHT22;5412;59.450;18.124;2023-03-01T00:19:09;4.20;99.90
10722;DHT22;5412;59.450;18.124;2023-03-01T00:21:36;4.20;99.90
10722;DHT22;5412;59.450;18.124;2023-03-01T00:24:02;4.10;99.90
10722;DHT22;5412;59.450;18.124;2023-03-01T00:26:28;4.10;99.90
10722;DHT22;5412;59.450;18.124;2023-03-01T00:28:54;4.10;99.90
10722;DHT22;5412;59.450;18.124;2023-03-01T00:31:26;4.10;99.90
10722;DHT22;5412;59.450;18.124;2023-03-01T00:33:56;4.00;99.90
10722;DHT22;5412;59.450;18.124;2023-03-01T00:36:25;4.00;99.90
10722;DHT22;5412;59.450;18.124;2023-03-01T00:38:51;4.00;99.90
10722;DHT22;5412;59.450;18.124;2023-03-01T00:41:18;4.00;99.90
10722;DHT22;5412;59.450;18.124;2023-03-01T00:43:44;3.90;99.90
10722;DHT22;5412;59.450;18.124;2023-03-01T00:46:12;3.90;99.90
10722;DHT22;5412;59.450;18.124;2023-03-01T00:48:39;3.90;99.90
10722;DHT22;5412;59.450;18.124;2023-03-01T00:51:10;3.80;99.90
10722;DHT22;5412;59.450;18.124;2023-03-01T00:53:37;3.80;99.90
10722;DHT22;5412;59.450;18.124;2023-03-01T00:56:05;3.70;99.90
10722;DHT22;5412;59.450;18.124;2023-03-01T00:58:31;3.60;99.90
10722;DHT22;5412;59.450;18.124;2023-03-01T01:00:57;3.70;99.90
10722;DHT22;5412;59.450;18.124;2023-03-01T01:03:23;3.60;99.90
10722;DHT22;5412;59.450;18.124;2023-03-01T01:05:54;3.60;99.90
10722;DHT22;5412;59.450;18.124;2023-03-01T01:08:20;3.50;99.90
10722;DHT22;5412;59.450;18.124;2023-03-01T01:10:46;3.60;99.90
10722;DHT22;5412;59.450;18.124;2023-03-01T01:13:13;3.50;99.90
10722;DHT22;5412;59.450;18.124;2023-03-01T01:15:39;3.40;99.90
10722;DHT22;5412;59.450;18.124;2023-03-01T01:18:06;3.50;99.90
10722;DHT22;5412;59.450;18.124;2023-03-01T01:20:32;3.50;99.90
10722;DHT22;5412;59.450;18.124;2023-03-01T01:22:58;3.40;99.90
10722;DHT22;5412;59.450;18.124;2023-03-01T01:25:23;3.40;99.90
10722;DHT22;5412;59.450;18.124;2023-03-01T01:27:52;3.40;99.90
10722;DHT22;5412;59.450;18.124;2023-03-01T01:30:18;3.30;99.90
10722;DHT22;5412;59.450;18.124;2023-03-01T01:32:44;3.30;99.90
10722;DHT22;5412;59.450;18.124;2023-03-01T01:35:10;3.40;99.90
10722;DHT22;5412;59.450;18.124;2023-03-01T01:37:35;3.40;99.90
10722;DHT22;5412;59.450;18.124;2023-03-01T01:40:02;3.30;99.90
10722;DHT22;5412;59.450;18.124;2023-03-01T01:42:31;3.40;99.90
10722;DHT22;5412;59.450;18.124;2023-03-01T01:45:34;3.40;99.90
10722;DHT22;5412;59.450;18.124;2023-03-01T01:48:07;3.40;99.90
10722;DHT22;5412;59.450;18.124;2023-03-01T01:50:39;3.30;99.90
10722;DHT22;5412;59.450;18.124;2023-03-01T01:53:10;3.20;99.90
10722;DHT22;5412;59.450;18.124;2023-03-01T01:55:42;3.10;99.90
10722;DHT22;5412;59.450;18.124;2023-03-01T01:58:11;3.10;99.90
10722;DHT22;5412;59.450;18.124;2023-03-01T02:00:38;3.10;99.90
10722;DHT22;5412;59.450;18.124;2023-03-01T02:03:14;3.10;99.90
10722;DHT22;5412;59.450;18.124;2023-03-01T02:08:27;3.00;99.90
10722;DHT22;5412;59.450;18.124;2023-03-01T02:10:56;3.00;99.90
10722;DHT22;5412;59.450;18.124;2023-03-01T02:13:23;3.00;99.90
10722;DHT22;5412;59.450;18.124;2023-03-01T02:15:49;3.00;99.90
10722;DHT22;5412;59.450;18.124;2023-03-01T02:18:18;3.00;99.90
10722;DHT22;5412;59.450;18.124;2023-03-01T02:23:30;2.90;99.90
10722;DHT22;5412;59.450;18.124;2023-03-01T02:28:37;2.90;99.90
10722;DHT22;5412;59.450;18.124;2023-03-01T02:31:05;3.00;99.90
10722;DHT22;5412;59.450;18.124;2023-03-01T02:33:51;3.00;99.90
10722;DHT22;5412;59.450;18.124;2023-03-01T02:36:28;3.00;99.90
10722;DHT22;5412;59.450;18.124;2023-03-01T02:38:57;3.00;99.90
10722;DHT22;5412;59.450;18.124;2023-03-01T02:41:25;2.90;99.90
10722;DHT22;5412;59.450;18.124;2023-03-01T02:43:52;2.80;99.90
10722;DHT22;5412;59.450;18.124;2023-03-01T02:46:21;2.90;99.90
10722;DHT22;5412;59.450;18.124;2023-03-01T02:48:48;2.80;99.90
10722;DHT22;5412;59.450;18.124;2023-03-01T02:56:49;2.90;99.90
10722;DHT22;5412;59.450;18.124;2023-03-01T02:59:16;2.90;99.90
10722;DHT22;5412;59.450;18.124;2023-03-01T03:01:43;3.00;99.90
10722;DHT22;5412;59.450;18.124;2023-03-01T03:04:13;2.90;99.90
10722;DHT22;5412;59.450;18.124;2023-03-01T03:06:43;2.90;99.90
10722;DHT22;5412;59.450;18.124;2023-03-01T03:09:09;3.00;99.90
10722;DHT22;5412;59.450;18.124;2023-03-01T03:11:35;2.90;99.90
10722;DHT22;5412;59.450;18.124;2023-03-01T03:14:02;2.90;99.90
10722;DHT22;5412;59.450;18.124;2023-03-01T03:16:28;2.80;99.90
10722;DHT22;5412;59.450;18.124;2023-03-01T03:18:55;2.80;99.90
10722;DHT22;5412;59.450;18.124;2023-03-01T03:21:33;2.90;99.90
10722;DHT22;5412;59.450;18.124;2023-03-01T03:24:00;2.80;99.90
10722;DHT22;5412;59.450;18.124;2023-03-01T03:26:26;2.70;99.90
10722;DHT22;5412;59.450;18.124;2023-03-01T03:28:51;2.60;99.90
10722;DHT22;5412;59.450;18.124;2023-03-01T03:31:17;2.70;99.90
10722;DHT22;5412;59.450;18.124;2023-03-01T03:33:43;2.70;99.90
10722;DHT22;5412;59.450;18.124;2023-03-01T03:36:09;2.70;99.90
10722;DHT22;5412;59.450;18.124;2023-03-01T03:38:39;2.80;99.90
10722;DHT22;5412;59.450;18.124;2023-03-01T03:41:07;2.80;99.90
10722;DHT22;5412;59.450;18.124;2023-03-01T03:43:37;2.80;99.90
10722;DHT22;5412;59.450;18.124;2023-03-01T03:46:03;2.70;99.90
10722;DHT22;5412;59.450;18.124;2023-03-01T03:48:35;2.60;99.90
10722;DHT22;5412;59.450;18.124;2023-03-01T03:51:01;2.50;99.90
10722;DHT22;5412;59.450;18.124;2023-03-01T03:53:28;2.50;99.90
10722;DHT22;5412;59.450;18.124;2023-03-01T03:55:55;2.50;99.90
10722;DHT22;5412;59.450;18.124;2023-03-01T03:58:22;2.40;99.90
10722;DHT22;5412;59.450;18.124;2023-03-01T04:00:50;2.30;99.90
10722;DHT22;5412;59.450;18.124;2023-03-01T04:03:17;2.30;99.90
10722;DHT22;5412;59.450;18.124;2023-03-01T04:05:44;2.30;99.90
10722;DHT22;5412;59.450;18.124;2023-03-01T04:08:11;2.20;99.90
10722;DHT22;5412;59.450;18.124;2023-03-01T04:10:44;2.20;99.90
10722;DHT22;5412;59.450;18.124;2023-03-01T04:13:12;2.20;99.90
10722;DHT22;5412;59.450;18.124;2023-03-01T04:15:39;2.20;99.90
10722;DHT22;5412;59.450;18.124;2023-03-01T04:18:05;2.10;99.90
10722;DHT22;5412;59.450;18.124;2023-03-01T04:20:34;2.10;99.90
10722;DHT22;5412;59.450;18.124;2023-03-01T04:25:41;2.00;99.90
10722;DHT22;5412;59.450;18.124;2023-03-01T04:28:08;2.00;99.90
10722;DHT22;5412;59.450;18.124;2023-03-01T04:30:35;2.00;99.90
10722;DHT22;5412;59.450;18.124;2023-03-01T04:33:03;2.10;99.90
10722;DHT22;5412;59.450;18.124;2023-03-01T04:35:30;2.00;99.90
10722;DHT22;5412;59.450;18.124;2023-03-01T04:37:56;2.00;99.90
10722;DHT22;5412;59.450;18.124;2023-03-01T04:40:22;2.00;99.90
10722;DHT22;5412;59.450;18.124;2023-03-01T04:42:47;2.00;99.90
10722;DHT22;5412;59.450;18.124;2023-03-01T04:45:13;2.00;99.90
10722;DHT22;5412;59.450;18.124;2023-03-01T04:47:40;2.10;99.90
10722;DHT22;5412;59.450;18.124;2023-03-01T04:50:07;2.10;99.90
10722;DHT22;5412;59.450;18.124;2023-03-01T04:52:33;1.50;99.90
10722;DHT22;5412;59.450;18.124;2023-03-01T04:54:59;2.10;99.90
10722;DHT22;5412;59.450;18.124;2023-03-01T04:57:25;2.10;99.90
10722;DHT22;5412;59.450;18.124;2023-03-01T04:59:50;2.10;99.90
10722;DHT22;5412;59.450;18.124;2023-03-01T05:02:16;2.10;99.90
10722;DHT22;5412;59.450;18.124;2023-03-01T05:04:42;2.10;99.90
10722;DHT22;5412;59.450;18.124;2023-03-01T05:07:08;2.00;99.90
10722;DHT22;5412;59.450;18.124;2023-03-01T05:09:33;2.10;99.90
10722;DHT22;5412;59.450;18.124;2023-03-01T05:11:59;2.10;99.90
10722;DHT22;5412;59.450;18.124;2023-03-01T05:14:25;2.20;99.90
10722;DHT22;5412;59.450;18.124;2023-03-01T05:16:51;2.20;99.90
10722;DHT22;5412;59.450;18.124;2023-03-01T05:19:16;2.30;99.90
10722;DHT22;5412;59.450;18.124;2023-03-01T05:21:48;2.30;99.90
10722;DHT22;5412;59.450;18.124;2023-03-01T05:24:34;2.20;99.90
10722;DHT22;5412;59.450;18.124;2023-03-01T05:27:01;2.20;99.90
10722;DHT22;5412;59.450;18.124;2023-03-01T05:29:28;2.20;99.90
10722;DHT22;5412;59.450;18.124;2023-03-01T05:31:56;2.30;99.90
10722;DHT22;5412;59.450;18.124;2023-03-01T05:34:34;2.20;99.90
10722;DHT22;5412;59.450;18.124;2023-03-01T05:37:01;2.20;99.90
10722;DHT22;5412;59.450;18.124;2023-03-01T05:39:29;2.20;99.90
10722;DHT22;5412;59.450;18.124;2023-03-01T05:41:56;2.20;99.90
10722;DHT22;5412;59.450;18.124;2023-03-01T05:44:23;2.20;99.90
10722;DHT22;5412;59.450;18.124;2023-03-01T05:46:51;2.20;99.90
10722;DHT22;5412;59.450;18.124;2023-03-01T05:49:18;2.20;99.90
10722;DHT22;5412;59.450;18.124;2023-03-01T05:51:48;2.20;99.90
10722;DHT22;5412;59.450;18.124;2023-03-01T05:54:15;2.10;99.90
10722;DHT22;5412;59.450;18.124;2023-03-01T05:56:41;2.20;99.90
10722;DHT22;5412;59.450;18.124;2023-03-01T05:59:07;2.20;99.90
10722;DHT22;5412;59.450;18.124;2023-03-01T06:01:33;2.30;99.90
10722;DHT22;5412;59.450;18.124;2023-03-01T06:04:00;2.30;99.90
10722;DHT22;5412;59.450;18.124;2023-03-01T06:06:25;2.30;99.90
10722;DHT22;5412;59.450;18.124;2023-03-01T06:08:52;2.30;99.90
10722;DHT22;5412;59.450;18.124;2023-03-01T06:11:18;2.40;99.90
10722;DHT22;5412;59.450;18.124;2023-03-01T06:13:45;2.40;99.90
10722;DHT22;5412;59.450;18.124;2023-03-01T06:16:12;2.40;99.90
10722;DHT22;5412;59.450;18.124;2023-03-01T06:18:38;2.50;99.90
10722;DHT22;5412;59.450;18.124;2023-03-01T06:21:05;2.50;99.90
10722;DHT22;5412;59.450;18.124;2023-03-01T06:23:32;2.50;99.90
10722;DHT22;5412;59.450;18.124;2023-03-01T06:25:58;2.50;99.90
10722;DHT22;5412;59.450;18.124;2023-03-01T06:28:24;2.60;99.90
10722;DHT22;5412;59.450;18.124;2023-03-01T06:30:50;2.50;99.90
10722;DHT22;5412;59.450;18.124;2023-03-01T06:33:17;2.50;99.90
10722;DHT22;5412;59.450;18.124;2023-03-01T06:35:46;2.50;99.90
10722;DHT22;5412;59.450;18.124;2023-03-01T06:38:12;2.60;99.90
10722;DHT22;5412;59.450;18.124;2023-03-01T06:40:41;2.50;99.90
10722;DHT22;5412;59.450;18.124;2023-03-01T06:43:07;2.50;99.90
10722;DHT22;5412;59.450;18.124;2023-03-01T06:45:33;2.50;99.90
10722;DHT22;5412;59.450;18.124;2023-03-01T06:48:06;2.60;99.90
10722;DHT22;5412;59.450;18.124;2023-03-01T06:50:33;2.60;99.90
10722;DHT22;5412;59.450;18.124;2023-03-01T06:52:59;2.60;99.90
10722;DHT22;5412;59.450;18.124;2023-03-01T06:55:25;2.60;99.90
10722;DHT22;5412;59.450;18.124;2023-03-01T06:57:59;2.60;99.90
10722;DHT22;5412;59.450;18.124;2023-03-01T07:00:25;2.60;99.90
10722;DHT22;5412;59.450;18.124;2023-03-01T07:02:51;2.50;99.90
10722;DHT22;5412;59.450;18.124;2023-03-01T07:05:17;2.60;99.90
10722;DHT22;5412;59.450;18.124;2023-03-01T07:07:43;2.60;99.90
10722;DHT22;5412;59.450;18.124;2023-03-01T07:10:09;2.70;99.90
10722;DHT22;5412;59.450;18.124;2023-03-01T07:12:35;2.80;99.90
10722;DHT22;5412;59.450;18.124;2023-03-01T07:15:01;2.90;99.90
10722;DHT22;5412;59.450;18.124;2023-03-01T07:17:27;2.90;99.90
10722;DHT22;5412;59.450;18.124;2023-03-01T07:19:53;3.00;99.90
10722;DHT22;5412;59.450;18.124;2023-03-01T07:22:18;3.10;99.90
10722;DHT22;5412;59.450;18.124;2023-03-01T07:24:44;3.10;99.90
10722;DHT22;5412;59.450;18.124;2023-03-01T07:27:11;3.10;99.90
10722;DHT22;5412;59.450;18.124;2023-03-01T07:29:37;3.10;99.90
10722;DHT22;5412;59.450;18.124;2023-03-01T07:32:04;3.10;99.90
10722;DHT22;5412;59.450;18.124;2023-03-01T07:34:30;3.30;99.90
10722;DHT22;5412;59.450;18.124;2023-03-01T07:36:56;3.40;99.90
10722;DHT22;5412;59.450;18.124;2023-03-01T07:39:22;3.50;99.90
10722;DHT22;5412;59.450;18.124;2023-03-01T07:41:51;3.60;99.90
10722;DHT22;5412;59.450;18.124;2023-03-01T07:44:17;3.60;99.90
10722;DHT22;5412;59.450;18.124;2023-03-01T07:46:43;3.60;99.90
10722;DHT22;5412;59.450;18.124;2023-03-01T07:49:09;3.60;99.90
10722;DHT22;5412;59.450;18.124;2023-03-01T07:51:35;3.70;99.90
10722;DHT22;5412;59.450;18.124;2023-03-01T07:54:00;3.70;99.90
10722;DHT22;5412;59.450;18.124;2023-03-01T07:56:26;3.80;99.90
10722;DHT22;5412;59.450;18.124;2023-03-01T07:58:52;3.80;99.90
10722;DHT22;5412;59.450;18.124;2023-03-01T08:01:19;3.80;99.90
10722;DHT22;5412;59.450;18.124;2023-03-01T08:03:46;3.90;99.90
10722;DHT22;5412;59.450;18.124;2023-03-01T08:06:13;4.00;99.90
10722;DHT22;5412;59.450;18.124;2023-03-01T08:08:40;3.90;99.90
10722;DHT22;5412;59.450;18.124;2023-03-01T08:11:06;4.00;99.90
10722;DHT22;5412;59.450;18.124;2023-03-01T08:13:33;4.00;99.90
10722;DHT22;5412;59.450;18.124;2023-03-01T08:16:09;4.00;99.90
10722;DHT22;5412;59.450;18.124;2023-03-01T08:18:35;3.90;99.90
10722;DHT22;5412;59.450;18.124;2023-03-01T08:21:04;4.00;99.90
10722;DHT22;5412;59.450;18.124;2023-03-01T08:23:30;4.00;99.90
10722;DHT22;5412;59.450;18.124;2023-03-01T08:26:16;4.00;99.90
10722;DHT22;5412;59.450;18.124;2023-03-01T08:28:42;4.10;99.90
10722;DHT22;5412;59.450;18.124;2023-03-01T08:33:44;4.20;99.90
10722;DHT22;5412;59.450;18.124;2023-03-01T08:36:16;4.30;99.90
10722;DHT22;5412;59.450;18.124;2023-03-01T08:38:42;4.30;99.90
10722;DHT22;5412;59.450;18.124;2023-03-01T08:41:08;4.40;99.90
10722;DHT22;5412;59.450;18.124;2023-03-01T08:43:33;4.60;99.90
10722;DHT22;5412;59.450;18.124;2023-03-01T08:45:59;4.40;99.90
10722;DHT22;5412;59.450;18.124;2023-03-01T08:48:27;4.40;99.90
10722;DHT22;5412;59.450;18.124;2023-03-01T08:50:52;4.50;99.90
10722;DHT22;5412;59.450;18.124;2023-03-01T08:53:18;4.60;99.90
10722;DHT22;5412;59.450;18.124;2023-03-01T08:55:44;4.80;99.90
10722;DHT22;5412;59.450;18.124;2023-03-01T08:58:09;4.70;99.90
10722;DHT22;5412;59.450;18.124;2023-03-01T09:00:35;4.90;99.90
10722;DHT22;5412;59.450;18.124;2023-03-01T09:03:01;4.90;99.90
10722;DHT22;5412;59.450;18.124;2023-03-01T09:05:27;5.10;99.90
10722;DHT22;5412;59.450;18.124;2023-03-01T09:07:53;5.10;99.90
10722;DHT22;5412;59.450;18.124;2023-03-01T09:10:19;5.20;99.90
10722;DHT22;5412;59.450;18.124;2023-03-01T09:12:44;5.20;99.90
10722;DHT22;5412;59.450;18.124;2023-03-01T09:15:10;5.30;99.90
10722;DHT22;5412;59.450;18.124;2023-03-01T09:17:36;5.40;99.90
10722;DHT22;5412;59.450;18.124;2023-03-01T09:20:02;5.40;99.90
10722;DHT22;5412;59.450;18.124;2023-03-01T09:22:32;5.50;99.90
10722;DHT22;5412;59.450;18.124;2023-03-01T09:24:58;5.60;99.90
10722;DHT22;5412;59.450;18.124;2023-03-01T09:27:24;5.70;99.90
10722;DHT22;5412;59.450;18.124;2023-03-01T09:29:50;5.80;99.90
10722;DHT22;5412;59.450;18.124;2023-03-01T09:32:16;5.80;99.90
10722;DHT22;5412;59.450;18.124;2023-03-01T09:34:42;5.90;99.90
10722;DHT22;5412;59.450;18.124;2023-03-01T09:37:27;6.00;99.90
10722;DHT22;5412;59.450;18.124;2023-03-01T09:39:52;6.00;99.90
10722;DHT22;5412;59.450;18.124;2023-03-01T09:42:18;6.00;99.90
10722;DHT22;5412;59.450;18.124;2023-03-01T09:44:50;6.10;99.90
10722;DHT22;5412;59.450;18.124;2023-03-01T09:47:23;6.20;99.90
10722;DHT22;5412;59.450;18.124;2023-03-01T09:53:02;6.30;99.90
10722;DHT22;5412;59.450;18.124;2023-03-01T10:00:57;6.30;99.90
10722;DHT22;5412;59.450;18.124;2023-03-01T10:03:36;6.20;99.90
10722;DHT22;5412;59.450;18.124;2023-03-01T10:11:31;6.30;99.90
10722;DHT22;5412;59.450;18.124;2023-03-01T10:19:44;6.30;99.90
10722;DHT22;5412;59.450;18.124;2023-03-01T10:22:22;6.40;99.90
10722;DHT22;5412;59.450;18.124;2023-03-01T10:24:51;6.50;99.90
10722;DHT22;5412;59.450;18.124;2023-03-01T10:27:37;6.50;99.90
10722;DHT22;5412;59.450;18.124;2023-03-01T10:32:42;6.50;99.90
10722;DHT22;5412;59.450;18.124;2023-03-01T10:35:23;6.60;99.90
10722;DHT22;5412;59.450;18.124;2023-03-01T10:38:07;6.60;99.90
10722;DHT22;5412;59.450;18.124;2023-03-01T10:40:35;6.70;99.90
10722;DHT22;5412;59.450;18.124;2023-03-01T10:43:04;6.80;99.90
10722;DHT22;5412;59.450;18.124;2023-03-01T10:45:37;6.80;99.90
10722;DHT22;5412;59.450;18.124;2023-03-01T10:48:21;6.90;99.90
10722;DHT22;5412;59.450;18.124;2023-03-01T10:53:32;6.80;99.90
10722;DHT22;5412;59.450;18.124;2023-03-01T10:56:01;7.00;99.90
10722;DHT22;5412;59.450;18.124;2023-03-01T10:58:28;7.10;99.90
10722;DHT22;5412;59.450;18.124;2023-03-01T11:00:57;7.00;99.90
10722;DHT22;5412;59.450;18.124;2023-03-01T11:03:30;7.00;99.90
10722;DHT22;5412;59.450;18.124;2023-03-01T11:08:39;7.00;99.90
10722;DHT22;5412;59.450;18.124;2023-03-01T11:13:50;7.20;99.90
10722;DHT22;5412;59.450;18.124;2023-03-01T11:16:26;7.20;99.90
10722;DHT22;5412;59.450;18.124;2023-03-01T11:19:07;7.30;99.90
10722;DHT22;5412;59.450;18.124;2023-03-01T11:24:45;7.30;99.90
10722;DHT22;5412;59.450;18.124;2023-03-01T11:27:24;7.30;99.90
10722;DHT22;5412;59.450;18.124;2023-03-01T11:32:43;7.30;99.90
10722;DHT22;5412;59.450;18.124;2023-03-01T11:35:21;7.40;99.90
10722;DHT22;5412;59.450;18.124;2023-03-01T11:38:23;7.50;99.90
10722;DHT22;5412;59.450;18.124;2023-03-01T11:43:49;7.50;99.90
10722;DHT22;5412;59.450;18.124;2023-03-01T11:56:56;7.70;99.90
10722;DHT22;5412;59.450;18.124;2023-03-01T12:05:20;7.80;99.90
10722;DHT22;5412;59.450;18.124;2023-03-01T12:27:18;8.60;99.90
10722;DHT22;5412;59.450;18.124;2023-03-01T12:38:41;8.40;99.90
10722;DHT22;5412;59.450;18.124;2023-03-01T12:47:02;8.50;99.90
10722;DHT22;5412;59.450;18.124;2023-03-01T12:50:02;8.60;99.90
10722;DHT22;5412;59.450;18.124;2023-03-01T12:55:08;8.80;99.90
10722;DHT22;5412;59.450;18.124;2023-03-01T12:57:46;8.90;99.90
10722;DHT22;5412;59.450;18.124;2023-03-01T13:02:49;8.90;99.90
10722;DHT22;5412;59.450;18.124;2023-03-01T13:05:34;8.80;99.90
10722;DHT22;5412;59.450;18.124;2023-03-01T13:08:26;8.80;99.90
10722;DHT22;5412;59.450;18.124;2023-03-01T13:11:00;8.80;99.90
10722;DHT22;5412;59.450;18.124;2023-03-01T13:13:28;8.80;99.90
10722;DHT22;5412;59.450;18.124;2023-03-01T13:15:54;8.70;99.90
10722;DHT22;5412;59.450;18.124;2023-03-01T13:20:52;8.70;99.90
10722;DHT22;5412;59.450;18.124;2023-03-01T13:31:07;8.90;99.90
10722;DHT22;5412;59.450;18.124;2023-03-01T13:33:43;8.80;99.90
10722;DHT22;5412;59.450;18.124;2023-03-01T13:36:11;8.80;99.90
10722;DHT22;5412;59.450;18.124;2023-03-01T13:41:14;9.10;99.90
10722;DHT22;5412;59.450;18.124;2023-03-01T13:43:42;9.60;99.90
10722;DHT22;5412;59.450;18.124;2023-03-01T13:46:18;9.90;99.90
10722;DHT22;5412;59.450;18.124;2023-03-01T13:48:49;10.30;99.90
10722;DHT22;5412;59.450;18.124;2023-03-01T13:51:16;10.90;99.90
10722;DHT22;5412;59.450;18.124;2023-03-01T13:53:46;11.50;99.90
10722;DHT22;5412;59.450;18.124;2023-03-01T13:56:16;12.10;99.90
10722;DHT22;5412;59.450;18.124;2023-03-01T13:58:53;13.00;99.90
10722;DHT22;5412;59.450;18.124;2023-03-01T14:01:31;12.90;99.90
10722;DHT22;5412;59.450;18.124;2023-03-01T14:03:58;12.50;99.90
10722;DHT22;5412;59.450;18.124;2023-03-01T14:06:33;13.00;99.90
10722;DHT22;5412;59.450;18.124;2023-03-01T14:21:42;10.30;99.90
10722;DHT22;5412;59.450;18.124;2023-03-01T14:24:17;10.10;99.90
10722;DHT22;5412;59.450;18.124;2023-03-01T14:26:44;9.90;99.90
10722;DHT22;5412;59.450;18.124;2023-03-01T14:29:36;9.80;99.90
10722;DHT22;5412;59.450;18.124;2023-03-01T14:32:18;9.60;99.90
10722;DHT22;5412;59.450;18.124;2023-03-01T14:34:49;9.50;99.90
10722;DHT22;5412;59.450;18.124;2023-03-01T14:37:28;9.30;99.90
10722;DHT22;5412;59.450;18.124;2023-03-01T14:39:57;9.30;99.90
10722;DHT22;5412;59.450;18.124;2023-03-01T14:42:25;9.30;99.90
10722;DHT22;5412;59.450;18.124;2023-03-01T14:44:54;9.30;99.90
10722;DHT22;5412;59.450;18.124;2023-03-01T14:47:29;9.20;99.90
10722;DHT22;5412;59.450;18.124;2023-03-01T14:50:26;9.20;99.90
10722;DHT22;5412;59.450;18.124;2023-03-01T14:53:04;9.20;99.90
10722;DHT22;5412;59.450;18.124;2023-03-01T14:55:34;9.20;99.90
10722;DHT22;5412;59.450;18.124;2023-03-01T14:58:04;9.20;99.90
10722;DHT22;5412;59.450;18.124;2023-03-01T15:00:32;9.10;99.90
10722;DHT22;5412;59.450;18.124;2023-03-01T15:03:06;9.10;99.90
10722;DHT22;5412;59.450;18.124;2023-03-01T15:05:35;9.10;99.90
10722;DHT22;5412;59.450;18.124;2023-03-01T15:08:03;9.10;99.90
10722;DHT22;5412;59.450;18.124;2023-03-01T15:10:35;9.10;99.90
10722;DHT22;5412;59.450;18.124;2023-03-01T15:13:12;9.00;99.90
10722;DHT22;5412;59.450;18.124;2023-03-01T15:15:46;8.90;99.90
10722;DHT22;5412;59.450;18.124;2023-03-01T15:20:41;9.00;99.90
10722;DHT22;5412;59.450;18.124;2023-03-01T15:23:34;9.00;99.90
10722;DHT22;5412;59.450;18.124;2023-03-01T15:26:02;9.00;99.90
10722;DHT22;5412;59.450;18.124;2023-03-01T15:28:34;9.00;99.90
10722;DHT22;5412;59.450;18.124;2023-03-01T15:31:21;9.00;99.90
10722;DHT22;5412;59.450;18.124;2023-03-01T15:33:49;9.00;99.90
10722;DHT22;5412;59.450;18.124;2023-03-01T15:38:58;8.90;99.90
10722;DHT22;5412;59.450;18.124;2023-03-01T15:41:46;8.90;99.90
10722;DHT22;5412;59.450;18.124;2023-03-01T15:44:27;8.90;99.90
10722;DHT22;5412;59.450;18.124;2023-03-01T15:46:53;8.90;99.90
10722;DHT22;5412;59.450;18.124;2023-03-01T15:51:57;8.90;99.90
10722;DHT22;5412;59.450;18.124;2023-03-01T15:54:25;8.80;99.90
10722;DHT22;5412;59.450;18.124;2023-03-01T15:56:52;8.90;99.90
10722;DHT22;5412;59.450;18.124;2023-03-01T15:59:18;8.80;99.90
10722;DHT22;5412;59.450;18.124;2023-03-01T16:01:44;8.80;99.90
10722;DHT22;5412;59.450;18.124;2023-03-01T16:04:15;8.70;99.90
10722;DHT22;5412;59.450;18.124;2023-03-01T16:06:50;8.70;99.90
10722;DHT22;5412;59.450;18.124;2023-03-01T16:09:20;8.60;99.90
10722;DHT22;5412;59.450;18.124;2023-03-01T16:11:47;8.60;99.90
10722;DHT22;5412;59.450;18.124;2023-03-01T16:14:13;8.60;99.90
10722;DHT22;5412;59.450;18.124;2023-03-01T16:16:40;8.60;99.90
10722;DHT22;5412;59.450;18.124;2023-03-01T16:19:05;8.60;99.90
10722;DHT22;5412;59.450;18.124;2023-03-01T16:21:31;8.60;99.90
10722;DHT22;5412;59.450;18.124;2023-03-01T16:23:57;8.60;99.90
10722;DHT22;5412;59.450;18.124;2023-03-01T16:26:22;8.60;99.90
10722;DHT22;5412;59.450;18.124;2023-03-01T16:28:48;8.60;99.90
10722;DHT22;5412;59.450;18.124;2023-03-01T16:31:18;8.50;99.90
10722;DHT22;5412;59.450;18.124;2023-03-01T16:33:44;8.50;99.90
10722;DHT22;5412;59.450;18.124;2023-03-01T16:36:15;8.50;99.90
10722;DHT22;5412;59.450;18.124;2023-03-01T16:38:41;8.50;99.90
10722;DHT22;5412;59.450;18.124;2023-03-01T16:41:13;8.50;99.90
10722;DHT22;5412;59.450;18.124;2023-03-01T16:43:39;8.60;99.90
10722;DHT22;5412;59.450;18.124;2023-03-01T16:46:17;8.50;99.90
10722;DHT22;5412;59.450;18.124;2023-03-01T16:48:44;8.50;99.90
10722;DHT22;5412;59.450;18.124;2023-03-01T16:51:11;8.50;99.90
10722;DHT22;5412;59.450;18.124;2023-03-01T16:53:37;8.50;99.90
10722;DHT22;5412;59.450;18.124;2023-03-01T16:56:06;8.50;99.90
10722;DHT22;5412;59.450;18.124;2023-03-01T16:58:33;8.40;99.90
10722;DHT22;5412;59.450;18.124;2023-03-01T17:01:05;8.50;99.90
10722;DHT22;5412;59.450;18.124;2023-03-01T17:03:31;8.50;99.90
10722;DHT22;5412;59.450;18.124;2023-03-01T17:05:57;8.50;99.90
10722;DHT22;5412;59.450;18.124;2023-03-01T17:08:26;8.50;99.90
10722;DHT22;5412;59.450;18.124;2023-03-01T17:10:51;8.50;99.90
10722;DHT22;5412;59.450;18.124;2023-03-01T17:13:17;8.50;99.90
10722;DHT22;5412;59.450;18.124;2023-03-01T17:15:43;8.60;99.90
10722;DHT22;5412;59.450;18.124;2023-03-01T17:18:09;8.50;99.90
10722;DHT22;5412;59.450;18.124;2023-03-01T17:20:35;8.60;99.90
10722;DHT22;5412;59.450;18.124;2023-03-01T17:23:02;8.50;99.90
10722;DHT22;5412;59.450;18.124;2023-03-01T17:25:28;8.60;99.90
10722;DHT22;5412;59.450;18.124;2023-03-01T17:27:54;8.60;99.90
10722;DHT22;5412;59.450;18.124;2023-03-01T17:30:20;8.60;99.90
10722;DHT22;5412;59.450;18.124;2023-03-01T17:32:46;8.70;99.90
10722;DHT22;5412;59.450;18.124;2023-03-01T17:35:12;8.70;99.90
10722;DHT22;5412;59.450;18.124;2023-03-01T17:37:38;8.60;99.90
10722;DHT22;5412;59.450;18.124;2023-03-01T17:40:05;8.60;99.90
10722;DHT22;5412;59.450;18.124;2023-03-01T17:42:32;8.60;99.90
10722;DHT22;5412;59.450;18.124;2023-03-01T17:44:58;8.60;99.90
10722;DHT22;5412;59.450;18.124;2023-03-01T17:47:24;8.60;99.90
10722;DHT22;5412;59.450;18.124;2023-03-01T17:49:50;8.60;99.90
10722;DHT22;5412;59.450;18.124;2023-03-01T17:52:16;8.40;99.90
10722;DHT22;5412;59.450;18.124;2023-03-01T17:54:42;8.30;99.90
10722;DHT22;5412;59.450;18.124;2023-03-01T17:57:07;8.30;99.90
10722;DHT22;5412;59.450;18.124;2023-03-01T17:59:36;8.30;99.90
10722;DHT22;5412;59.450;18.124;2023-03-01T18:02:01;8.30;99.90
10722;DHT22;5412;59.450;18.124;2023-03-01T18:04:28;8.20;99.90
10722;DHT22;5412;59.450;18.124;2023-03-01T18:06:54;8.10;99.90
10722;DHT22;5412;59.450;18.124;2023-03-01T18:09:21;8.20;99.90
10722;DHT22;5412;59.450;18.124;2023-03-01T18:11:46;8.10;99.90
10722;DHT22;5412;59.450;18.124;2023-03-01T18:14:12;8.20;99.90
10722;DHT22;5412;59.450;18.124;2023-03-01T18:16:38;8.20;99.90
10722;DHT22;5412;59.450;18.124;2023-03-01T18:19:04;8.20;99.90
10722;DHT22;5412;59.450;18.124;2023-03-01T18:21:31;8.20;99.90
10722;DHT22;5412;59.450;18.124;2023-03-01T18:23:57;8.00;99.90